createdAt,value
2017-04-06T00:00:47.924Z,20.90
2017-04-06T00:01:57.904Z,15.53
2017-04-06T00:03:00.347Z,20.44
2017-04-06T00:04:04.564Z,21.46
2017-04-06T00:05:04.044Z,17.64
2017-04-06T00:06:03.133Z,19.11
2017-04-06T00:07:04.469Z,12.47
2017-04-06T00:08:02.433Z,21.79
2017-04-06T00:09:01.154Z,16.29
2017-04-06T00:10:00.409Z,17.79
2017-04-06T00:11:00.337Z,21.00
2017-04-06T00:11:59.511Z,18.84
2017-04-06T00:12:59.735Z,15.10
2017-04-06T00:14:00.565Z,14.43
2017-04-06T00:15:04.545Z,25.13
2017-04-06T00:16:04.474Z,20.06
2017-04-06T00:17:02.956Z,23.23
2017-04-06T00:18:02.308Z,19.76
2017-04-06T00:19:01.396Z,17.60
2017-04-06T00:20:01.516Z,15.51
2017-04-06T00:21:00.451Z,16.90
2017-04-06T00:22:00.193Z,23.23
2017-04-06T00:23:04.469Z,20.73
2017-04-06T00:24:06.616Z,11.30
2017-04-06T00:25:05.703Z,22.11
2017-04-06T00:26:07.956Z,19.03
2017-04-06T00:27:07.322Z,9.77
2017-04-06T00:28:11.484Z,20.21
2017-04-06T00:29:10.229Z,12.96
2017-04-06T00:30:09.359Z,20.07
2017-04-06T00:31:08.030Z,12.56
2017-04-06T00:32:15.855Z,21.71
2017-04-06T00:33:20.418Z,16.33
2017-04-06T00:34:25.619Z,16.76
2017-04-06T00:35:24.756Z,15.03
2017-04-06T00:36:24.969Z,14.06
2017-04-06T00:37:25.104Z,14.16
2017-04-06T00:38:24.739Z,16.80
2017-04-06T00:39:24.381Z,17.97
2017-04-06T00:40:23.259Z,18.74
2017-04-06T00:41:23.571Z,19.83
2017-04-06T00:42:22.697Z,10.00
2017-04-06T00:43:25.011Z,19.24
2017-04-06T00:44:24.974Z,19.54
2017-04-06T00:45:26.803Z,16.97
2017-04-06T00:46:26.242Z,16.54
2017-04-06T00:47:27.332Z,17.76
2017-04-06T00:48:36.927Z,15.74
2017-04-06T00:49:59.245Z,13.10
2017-04-06T00:51:01.363Z,19.33
2017-04-06T00:52:06.031Z,18.43
2017-04-06T00:53:10.106Z,19.33
2017-04-06T00:54:11.100Z,12.54
2017-04-06T00:55:14.843Z,22.13
2017-04-06T00:56:15.423Z,23.27
2017-04-06T00:57:13.573Z,21.24
2017-04-06T00:58:16.847Z,25.11
2017-04-06T00:59:15.553Z,25.94
2017-04-06T01:00:14.898Z,21.39
2017-04-06T01:01:16.264Z,16.41
2017-04-06T01:02:21.738Z,11.96
2017-04-06T01:03:20.009Z,14.09
2017-04-06T01:04:20.552Z,16.06
2017-04-06T01:05:20.819Z,13.20
2017-04-06T01:06:20.450Z,22.36
2017-04-06T01:07:18.931Z,27.37
2017-04-06T01:08:17.564Z,15.53
2017-04-06T01:09:21.845Z,15.80
2017-04-06T01:10:21.598Z,18.44
2017-04-06T01:11:27.140Z,19.84
2017-04-06T01:12:36.844Z,15.11
2017-04-06T01:13:43.850Z,33.09
2017-04-06T01:14:42.777Z,21.39
2017-04-06T01:15:45.614Z,19.61
2017-04-06T01:16:45.761Z,19.50
2017-04-06T01:17:44.992Z,18.66
2017-04-06T01:18:45.417Z,15.83
2017-04-06T01:19:43.863Z,23.57
2017-04-06T01:20:45.891Z,18.24
2017-04-06T01:21:50.232Z,16.80
2017-04-06T01:22:50.094Z,17.03
2017-04-06T01:23:53.754Z,19.64
2017-04-06T01:24:52.765Z,18.14
2017-04-06T01:25:51.943Z,20.17
2017-04-06T01:26:49.915Z,18.23
2017-04-06T01:27:49.149Z,18.93
2017-04-06T01:28:49.021Z,27.13
2017-04-06T01:29:46.869Z,24.14
2017-04-06T01:30:44.726Z,16.13
2017-04-06T01:31:42.659Z,17.46
2017-04-06T01:32:40.521Z,20.63
2017-04-06T01:33:38.411Z,20.76
2017-04-06T01:34:36.265Z,21.50
2017-04-06T01:35:34.113Z,17.20
2017-04-06T01:36:32.054Z,16.46
2017-04-06T01:37:29.943Z,19.54
2017-04-06T01:38:27.841Z,16.49
2017-04-06T01:39:25.688Z,14.99
2017-04-06T01:40:23.584Z,18.29
2017-04-06T01:41:21.603Z,14.63
2017-04-06T01:42:19.510Z,15.74
2017-04-06T01:43:17.410Z,17.51
2017-04-06T01:44:15.211Z,20.17
2017-04-06T01:45:13.064Z,18.70
2017-04-06T01:46:10.960Z,18.83
2017-04-06T01:47:08.883Z,15.63
2017-04-06T01:48:06.720Z,19.26
2017-04-06T01:49:04.592Z,20.69
2017-04-06T01:50:02.456Z,17.10
2017-04-06T01:51:00.335Z,18.09
2017-04-06T01:51:58.204Z,22.10
2017-04-06T01:52:55.991Z,20.34
2017-04-06T01:53:53.884Z,18.80
2017-04-06T01:54:51.720Z,15.89
2017-04-06T01:55:49.635Z,15.67
2017-04-06T01:56:47.526Z,12.44
2017-04-06T01:57:45.354Z,17.63
2017-04-06T01:58:43.257Z,18.53
2017-04-06T01:59:41.137Z,13.46
2017-04-06T02:00:39.108Z,25.13
2017-04-06T02:01:36.952Z,16.09
2017-04-06T02:02:34.774Z,15.91
2017-04-06T02:03:32.662Z,18.26
2017-04-06T02:04:30.524Z,13.46
2017-04-06T02:05:28.456Z,19.69
2017-04-06T02:06:26.355Z,14.51
2017-04-06T02:07:24.277Z,18.10
2017-04-06T02:08:22.191Z,23.30
2017-04-06T02:09:20.088Z,18.63
2017-04-06T02:10:18.000Z,19.34
2017-04-06T02:11:15.901Z,17.09
2017-04-06T02:12:13.859Z,17.47
2017-04-06T02:13:11.771Z,20.74
2017-04-06T02:14:09.637Z,13.81
2017-04-06T02:15:07.532Z,18.71
2017-04-06T02:16:05.352Z,18.51
2017-04-06T02:17:03.211Z,17.60
2017-04-06T02:18:01.021Z,16.70
2017-04-06T02:18:58.877Z,14.21
2017-04-06T02:19:56.730Z,23.14
2017-04-06T02:20:54.616Z,20.37
2017-04-06T02:21:52.512Z,15.84
2017-04-06T02:22:50.457Z,31.79
2017-04-06T02:23:48.407Z,15.54
2017-04-06T02:24:46.264Z,18.16
2017-04-06T02:25:44.122Z,20.27
2017-04-06T02:26:41.922Z,17.47
2017-04-06T02:27:39.821Z,21.51
2017-04-06T02:28:37.786Z,15.00
2017-04-06T02:29:35.658Z,23.86
2017-04-06T02:30:33.588Z,17.67
2017-04-06T02:31:31.517Z,27.36
2017-04-06T02:32:31.167Z,17.31
2017-04-06T02:33:29.140Z,18.94
2017-04-06T02:34:27.080Z,18.80
2017-04-06T02:35:24.987Z,21.09
2017-04-06T02:36:22.928Z,19.53
2017-04-06T02:37:20.798Z,17.89
2017-04-06T02:38:18.800Z,15.41
2017-04-06T02:39:16.728Z,13.57
2017-04-06T02:40:14.593Z,19.71
2017-04-06T02:41:12.815Z,18.33
2017-04-06T02:42:10.724Z,15.53
2017-04-06T02:43:08.714Z,28.36
2017-04-06T02:44:06.581Z,17.77
2017-04-06T02:45:04.502Z,14.61
2017-04-06T02:46:02.377Z,17.96
2017-04-06T02:47:00.223Z,20.36
2017-04-06T02:47:58.119Z,20.39
2017-04-06T02:48:56.008Z,19.65
2017-04-06T02:49:53.847Z,18.10
2017-04-06T02:50:51.646Z,23.31
2017-04-06T02:51:49.616Z,18.85
2017-04-06T02:52:47.508Z,21.21
2017-04-06T02:53:45.412Z,15.15
2017-04-06T02:54:43.337Z,24.93
2017-04-06T02:55:41.166Z,22.50
2017-04-06T02:56:39.024Z,17.20
2017-04-06T02:57:36.868Z,17.96
2017-04-06T02:58:34.843Z,16.66
2017-04-06T02:59:32.760Z,15.73
2017-04-06T03:00:30.623Z,15.26
2017-04-06T03:01:28.578Z,22.37
2017-04-06T03:02:26.404Z,26.96
2017-04-06T03:03:24.504Z,14.09
2017-04-06T03:04:22.702Z,22.31
2017-04-06T03:05:21.916Z,12.74
2017-04-06T03:06:20.106Z,13.11
2017-04-06T03:07:17.948Z,23.96
2017-04-06T03:08:15.818Z,17.71
2017-04-06T03:09:13.719Z,19.34
2017-04-06T03:10:11.833Z,16.70
2017-04-06T03:11:09.680Z,12.20
2017-04-06T03:12:07.600Z,18.21
2017-04-06T03:13:05.456Z,17.86
2017-04-06T03:14:03.332Z,27.24
2017-04-06T03:15:01.199Z,15.63
2017-04-06T03:15:59.094Z,22.70
2017-04-06T03:16:56.931Z,18.29
2017-04-06T03:17:54.861Z,23.66
2017-04-06T03:18:52.716Z,20.61
2017-04-06T03:19:50.515Z,16.67
2017-04-06T03:20:48.420Z,24.06
2017-04-06T03:21:46.250Z,19.90
2017-04-06T03:22:44.093Z,17.83
2017-04-06T03:23:41.952Z,14.96
2017-04-06T03:24:39.856Z,19.47
2017-04-06T03:25:37.728Z,17.59
2017-04-06T03:26:35.654Z,17.70
2017-04-06T03:27:33.488Z,19.44
2017-04-06T03:28:31.504Z,24.94
2017-04-06T03:29:29.350Z,15.90
2017-04-06T03:30:27.220Z,23.43
2017-04-06T03:31:25.099Z,23.19
2017-04-06T03:32:22.941Z,21.10
2017-04-06T03:33:20.843Z,17.30
2017-04-06T03:34:18.666Z,23.16
2017-04-06T03:35:16.721Z,14.57
2017-04-06T03:36:14.593Z,15.64
2017-04-06T03:37:12.563Z,24.13
2017-04-06T03:38:10.440Z,19.50
2017-04-06T03:39:08.378Z,21.44
2017-04-06T03:40:06.279Z,24.70
2017-04-06T03:41:04.159Z,22.10
2017-04-06T03:42:02.017Z,21.09
2017-04-06T03:42:59.890Z,22.17
2017-04-06T03:43:57.724Z,21.35
2017-04-06T03:44:55.561Z,23.68
2017-04-06T03:45:53.420Z,13.49
2017-04-06T03:46:51.312Z,16.70
2017-04-06T03:47:49.978Z,19.89
2017-04-06T03:48:47.799Z,23.37
2017-04-06T03:49:45.623Z,19.76
2017-04-06T03:50:43.496Z,23.76
2017-04-06T03:51:41.440Z,20.29
2017-04-06T03:52:39.267Z,28.07
2017-04-06T03:53:37.203Z,25.81
2017-04-06T03:54:35.069Z,18.85
2017-04-06T03:55:32.945Z,19.87
2017-04-06T03:56:30.791Z,13.19
2017-04-06T03:57:28.655Z,18.49
2017-04-06T03:58:26.528Z,14.13
2017-04-06T03:59:24.419Z,20.80
2017-04-06T04:00:22.288Z,19.81
2017-04-06T04:01:20.256Z,21.04
2017-04-06T04:02:18.232Z,32.10
2017-04-06T04:03:16.131Z,21.89
2017-04-06T04:04:14.040Z,12.17
2017-04-06T04:05:12.008Z,16.40
2017-04-06T04:06:09.931Z,19.80
2017-04-06T04:07:07.845Z,20.38
2017-04-06T04:08:05.744Z,18.98
2017-04-06T04:09:03.850Z,15.96
2017-04-06T04:10:01.744Z,18.47
2017-04-06T04:10:59.635Z,22.68
2017-04-06T04:11:57.586Z,25.24
2017-04-06T04:12:55.446Z,16.14
2017-04-06T04:13:53.359Z,19.07
2017-04-06T04:14:51.294Z,19.20
2017-04-06T04:15:49.156Z,20.07
2017-04-06T04:16:48.784Z,21.41
2017-04-06T04:17:46.775Z,23.51
2017-04-06T04:18:44.600Z,15.09
2017-04-06T04:19:48.843Z,25.04
2017-04-06T04:20:46.716Z,21.44
2017-04-06T04:21:44.589Z,18.30
2017-04-06T04:22:42.505Z,16.15
2017-04-06T04:23:40.464Z,22.17
2017-04-06T04:24:38.308Z,19.51
2017-04-06T04:25:36.231Z,24.67
2017-04-06T04:26:34.091Z,16.41
2017-04-06T04:27:31.958Z,22.87
2017-04-06T04:28:29.779Z,15.43
2017-04-06T04:29:27.716Z,17.30
2017-04-06T04:30:25.555Z,24.20
2017-04-06T04:31:23.403Z,17.15
2017-04-06T04:32:21.353Z,17.33
2017-04-06T04:33:19.220Z,26.36
2017-04-06T04:34:17.122Z,21.51
2017-04-06T04:35:15.080Z,23.19
2017-04-06T04:36:12.943Z,18.73
2017-04-06T04:37:10.796Z,18.73
2017-04-06T04:38:08.649Z,16.99
2017-04-06T04:39:06.569Z,15.86
2017-04-06T04:40:04.483Z,19.49
2017-04-06T04:41:02.367Z,18.81
2017-04-06T04:42:00.247Z,20.06
2017-04-06T04:42:58.135Z,22.50
2017-04-06T04:43:56.044Z,26.30
2017-04-06T04:44:53.905Z,18.67
2017-04-06T04:45:51.828Z,14.94
2017-04-06T04:46:49.787Z,17.27
2017-04-06T04:47:47.632Z,15.40
2017-04-06T04:48:45.516Z,20.40
2017-04-06T04:49:43.435Z,21.27
2017-04-06T04:50:41.245Z,21.66
2017-04-06T04:51:39.128Z,22.86
2017-04-06T04:52:36.981Z,17.93
2017-04-06T04:53:34.824Z,17.74
2017-04-06T04:54:32.771Z,26.39
2017-04-06T04:55:30.624Z,16.15
2017-04-06T04:56:28.512Z,18.73
2017-04-06T04:57:26.464Z,19.14
2017-04-06T04:58:25.183Z,18.54
2017-04-06T04:59:23.148Z,20.90
2017-04-06T05:00:21.195Z,18.58
2017-04-06T05:01:19.081Z,22.93
2017-04-06T05:02:16.995Z,21.09
2017-04-06T05:03:14.890Z,20.85
2017-04-06T05:04:12.803Z,19.23
2017-04-06T05:05:10.672Z,21.16
2017-04-06T05:06:08.573Z,22.16
2017-04-06T05:07:06.548Z,15.27
2017-04-06T05:08:04.400Z,21.29
2017-04-06T05:09:02.218Z,20.55
2017-04-06T05:10:00.035Z,17.94
2017-04-06T05:10:57.908Z,17.39
2017-04-06T05:11:55.807Z,16.64
2017-04-06T05:12:53.620Z,17.44
2017-04-06T05:13:51.431Z,17.00
2017-04-06T05:14:49.321Z,18.50
2017-04-06T05:15:47.214Z,16.11
2017-04-06T05:16:45.236Z,23.74
2017-04-06T05:17:43.091Z,22.01
2017-04-06T05:18:40.927Z,25.94
2017-04-06T05:19:38.754Z,21.83
2017-04-06T05:20:36.615Z,20.25
2017-04-06T05:21:34.421Z,18.56
2017-04-06T05:22:32.293Z,21.64
2017-04-06T05:23:30.138Z,27.53
2017-04-06T05:24:28.084Z,20.07
2017-04-06T05:25:25.982Z,19.40
2017-04-06T05:26:23.860Z,20.33
2017-04-06T05:27:21.792Z,24.36
2017-04-06T05:28:19.630Z,15.14
2017-04-06T05:29:17.522Z,21.91
2017-04-06T05:30:15.398Z,16.61
2017-04-06T05:31:13.254Z,23.16
2017-04-06T05:32:11.258Z,26.96
2017-04-06T05:33:09.131Z,17.16
2017-04-06T05:34:06.991Z,19.97
2017-04-06T05:35:04.949Z,22.14
2017-04-06T05:36:02.890Z,16.92
2017-04-06T05:37:00.807Z,28.91
2017-04-06T05:37:58.668Z,18.34
2017-04-06T05:38:56.544Z,21.99
2017-04-06T05:39:54.440Z,22.24
2017-04-06T05:40:52.350Z,20.60
2017-04-06T05:41:50.251Z,27.23
2017-04-06T05:42:48.084Z,26.99
2017-04-06T05:43:45.988Z,26.59
2017-04-06T05:44:43.876Z,21.09
2017-04-06T05:45:41.733Z,18.06
2017-04-06T05:46:39.600Z,18.59
2017-04-06T05:47:37.531Z,23.63
2017-04-06T05:48:35.423Z,20.49
2017-04-06T05:49:33.252Z,21.26
2017-04-06T05:50:31.175Z,21.14
2017-04-06T05:51:29.068Z,23.72
2017-04-06T05:52:26.958Z,21.61
2017-04-06T05:53:24.854Z,21.67
2017-04-06T05:54:22.783Z,20.81
2017-04-06T05:55:20.762Z,24.42
2017-04-06T05:56:18.593Z,14.14
2017-04-06T05:57:16.461Z,22.05
2017-04-06T05:58:14.337Z,22.65
2017-04-06T05:59:12.253Z,17.13
2017-04-06T06:00:10.095Z,15.03
2017-04-06T06:01:07.953Z,17.50
2017-04-06T06:02:05.801Z,19.04
2017-04-06T06:03:03.672Z,18.84
2017-04-06T06:04:01.556Z,18.30
2017-04-06T06:04:59.416Z,16.56
2017-04-06T06:05:57.364Z,17.38
2017-04-06T06:06:55.239Z,26.04
2017-04-06T06:07:53.185Z,17.14
2017-04-06T06:08:51.058Z,11.99
2017-04-06T06:09:48.924Z,18.24
2017-04-06T06:10:46.828Z,19.39
2017-04-06T06:11:44.984Z,22.81
2017-04-06T06:12:42.830Z,19.50
2017-04-06T06:13:40.661Z,23.74
2017-04-06T06:14:38.537Z,19.44
2017-04-06T06:15:36.429Z,17.70
2017-04-06T06:16:34.253Z,22.09
2017-04-06T06:17:32.152Z,19.74
2017-04-06T06:18:30.444Z,22.99
2017-04-06T06:19:28.357Z,20.70
2017-04-06T06:20:26.227Z,17.73
2017-04-06T06:21:24.124Z,18.01
2017-04-06T06:22:22.038Z,17.26
2017-04-06T06:23:19.945Z,19.11
2017-04-06T06:24:17.903Z,23.53
2017-04-06T06:25:15.789Z,20.76
2017-04-06T06:26:13.671Z,20.49
2017-04-06T06:27:11.539Z,20.54
2017-04-06T06:28:09.453Z,22.43
2017-04-06T06:29:07.300Z,22.68
2017-04-06T06:30:05.257Z,21.29
2017-04-06T06:31:03.095Z,21.34
2017-04-06T06:32:00.928Z,18.66
2017-04-06T06:32:58.768Z,11.64
2017-04-06T06:33:56.591Z,16.13
2017-04-06T06:34:54.434Z,18.91
2017-04-06T06:35:52.332Z,20.54
2017-04-06T06:36:50.229Z,17.79
2017-04-06T06:37:48.159Z,20.50
2017-04-06T06:38:46.025Z,23.51
2017-04-06T06:39:43.859Z,21.39
2017-04-06T06:40:41.828Z,24.30
2017-04-06T06:41:39.709Z,19.79
2017-04-06T06:42:38.047Z,17.35
2017-04-06T06:43:35.901Z,14.17
2017-04-06T06:44:33.753Z,16.37
2017-04-06T06:45:32.389Z,18.86
2017-04-06T06:46:30.362Z,22.73
2017-04-06T06:47:28.192Z,20.14
2017-04-06T06:48:26.141Z,17.71
2017-04-06T06:49:23.941Z,19.53
2017-04-06T06:50:21.859Z,17.47
2017-04-06T06:51:19.927Z,18.23
2017-04-06T06:52:17.792Z,18.43
2017-04-06T06:53:15.759Z,15.57
2017-04-06T06:54:13.692Z,21.69
2017-04-06T06:55:11.596Z,18.03
2017-04-06T06:56:09.630Z,22.27
2017-04-06T06:57:07.500Z,25.07
2017-04-06T06:58:05.381Z,17.21
2017-04-06T06:59:03.305Z,17.37
2017-04-06T07:00:01.216Z,17.01
2017-04-06T07:00:59.144Z,20.41
2017-04-06T07:01:57.108Z,14.50
2017-04-06T07:02:54.995Z,16.94
2017-04-06T07:03:52.867Z,10.41
2017-04-06T07:04:50.713Z,14.94
2017-04-06T07:05:48.635Z,14.24
2017-04-06T07:06:46.513Z,12.23
2017-04-06T07:07:44.384Z,17.46
2017-04-06T07:08:42.288Z,15.86
2017-04-06T07:09:40.230Z,13.26
2017-04-06T07:10:38.080Z,18.54
2017-04-06T07:11:35.949Z,14.49
2017-04-06T07:12:33.829Z,12.00
2017-04-06T07:13:31.736Z,18.27
2017-04-06T07:14:29.543Z,18.91
2017-04-06T07:15:27.669Z,11.89
2017-04-06T07:16:25.681Z,19.50
2017-04-06T07:17:23.572Z,14.63
2017-04-06T07:18:21.481Z,13.76
2017-04-06T07:19:19.358Z,17.00
2017-04-06T07:20:17.316Z,12.73
2017-04-06T07:21:15.330Z,13.84
2017-04-06T07:22:13.205Z,21.49
2017-04-06T07:23:11.683Z,16.00
2017-04-06T07:24:09.512Z,20.86
2017-04-06T07:25:07.584Z,17.11
2017-04-06T07:26:05.580Z,23.04
2017-04-06T07:27:03.414Z,16.49
2017-04-06T07:28:01.297Z,10.67
2017-04-06T07:28:59.119Z,12.46
2017-04-06T07:29:56.983Z,15.37
2017-04-06T07:30:54.845Z,17.56
2017-04-06T07:31:52.733Z,14.49
2017-04-06T07:32:50.624Z,14.31
2017-04-06T07:33:48.473Z,20.64
2017-04-06T07:34:46.366Z,19.17
2017-04-06T07:35:44.224Z,21.17
2017-04-06T07:36:42.108Z,16.97
2017-04-06T07:37:39.940Z,19.66
2017-04-06T07:38:37.933Z,11.50
2017-04-06T07:39:35.807Z,17.07
2017-04-06T07:40:33.681Z,14.44
2017-04-06T07:41:31.532Z,18.40
2017-04-06T07:42:29.351Z,15.09
2017-04-06T07:43:27.272Z,13.63
2017-04-06T07:44:25.154Z,20.56
2017-04-06T07:45:26.027Z,20.31
2017-04-06T07:46:24.068Z,12.01
2017-04-06T07:47:22.408Z,22.33
2017-04-06T07:48:20.309Z,17.13
2017-04-06T07:49:18.211Z,15.77
2017-04-06T07:50:16.073Z,16.91
2017-04-06T07:51:13.944Z,19.49
2017-04-06T07:52:11.927Z,12.66
2017-04-06T07:53:09.775Z,12.14
2017-04-06T07:54:07.669Z,15.89
2017-04-06T07:55:05.544Z,21.27
2017-04-06T07:56:03.427Z,14.57
2017-04-06T07:57:01.296Z,18.67
2017-04-06T07:57:59.184Z,16.10
2017-04-06T07:58:57.063Z,18.73
2017-04-06T07:59:54.941Z,21.04
2017-04-06T08:00:52.859Z,25.47
2017-04-06T08:01:50.780Z,22.04
2017-04-06T08:02:48.607Z,14.73
2017-04-06T08:03:46.406Z,25.93
2017-04-06T08:04:44.343Z,17.27
2017-04-06T08:05:42.187Z,14.36
2017-04-06T08:06:40.045Z,14.40
2017-04-06T08:07:37.968Z,17.89
2017-04-06T08:08:35.827Z,19.43
2017-04-06T08:09:33.728Z,13.31
2017-04-06T08:10:31.563Z,14.79
2017-04-06T08:11:29.576Z,16.80
2017-04-06T08:12:27.432Z,16.60
2017-04-06T08:13:25.431Z,14.30
2017-04-06T08:14:23.268Z,10.60
2017-04-06T08:15:21.165Z,13.67
2017-04-06T08:16:19.105Z,19.20
2017-04-06T08:17:17.013Z,9.79
2017-04-06T08:18:14.855Z,15.03
2017-04-06T08:19:12.734Z,15.16
2017-04-06T08:20:10.608Z,18.67
2017-04-06T08:21:08.519Z,15.94
2017-04-06T08:22:06.333Z,12.77
2017-04-06T08:23:04.344Z,11.27
2017-04-06T08:24:02.232Z,12.00
2017-04-06T08:25:00.050Z,15.31
2017-04-06T08:25:57.950Z,12.67
2017-04-06T08:26:55.809Z,13.09
2017-04-06T08:27:53.875Z,15.96
2017-04-06T08:28:51.717Z,15.01
2017-04-06T08:29:49.759Z,11.54
2017-04-06T08:30:47.662Z,18.00
2017-04-06T08:31:45.472Z,16.86
2017-04-06T08:32:43.319Z,15.41
2017-04-06T08:33:41.207Z,11.61
2017-04-06T08:34:39.096Z,15.07
2017-04-06T08:35:36.953Z,16.46
2017-04-06T08:36:34.832Z,14.20
2017-04-06T08:37:32.715Z,12.31
2017-04-06T08:38:30.652Z,13.74
2017-04-06T08:39:28.497Z,16.21
2017-04-06T08:40:26.358Z,12.30
2017-04-06T08:41:24.245Z,21.41
2017-04-06T08:42:22.095Z,23.24
2017-04-06T08:43:19.980Z,21.23
2017-04-06T08:44:18.449Z,14.39
2017-04-06T08:45:16.359Z,8.80
2017-04-06T08:46:14.211Z,10.46
2017-04-06T08:47:12.219Z,16.23
2017-04-06T08:48:10.096Z,15.60
2017-04-06T08:49:07.970Z,16.46
2017-04-06T08:50:05.840Z,13.01
2017-04-06T08:51:03.826Z,11.94
2017-04-06T08:52:01.719Z,11.74
2017-04-06T08:52:59.562Z,13.10
2017-04-06T08:53:57.472Z,13.74
2017-04-06T08:54:55.348Z,17.17
2017-04-06T08:55:53.202Z,10.57
2017-04-06T08:56:51.121Z,13.90
2017-04-06T08:57:48.982Z,14.27
2017-04-06T08:58:46.855Z,9.77
2017-04-06T08:59:44.757Z,13.91
2017-04-06T09:00:42.644Z,16.84
2017-04-06T09:01:40.612Z,13.49
2017-04-06T09:02:38.457Z,10.37
2017-04-06T09:03:36.288Z,9.64
2017-04-06T09:04:34.180Z,11.23
2017-04-06T09:05:32.026Z,15.60
2017-04-06T09:06:29.911Z,10.96
2017-04-06T09:07:27.783Z,14.39
2017-04-06T09:08:25.624Z,15.11
2017-04-06T09:09:23.459Z,12.31
2017-04-06T09:10:21.435Z,12.64
2017-04-06T09:11:19.279Z,10.21
2017-04-06T09:12:17.138Z,11.06
2017-04-06T09:13:15.040Z,9.44
2017-04-06T09:14:12.968Z,14.93
2017-04-06T09:15:10.831Z,8.87
2017-04-06T09:16:08.717Z,11.40
2017-04-06T09:17:06.647Z,12.54
2017-04-06T09:18:04.526Z,11.73
2017-04-06T09:19:02.375Z,19.59
2017-04-06T09:20:00.221Z,13.37
2017-04-06T09:20:58.055Z,8.10
2017-04-06T09:21:55.968Z,9.79
2017-04-06T09:22:53.822Z,10.79
2017-04-06T09:23:51.870Z,9.27
2017-04-06T09:24:49.727Z,9.10
2017-04-06T09:25:47.688Z,7.80
2017-04-06T09:26:45.589Z,14.14
2017-04-06T09:27:43.461Z,6.86
2017-04-06T09:28:41.351Z,9.30
2017-04-06T09:29:39.284Z,5.50
2017-04-06T09:30:37.136Z,12.43
2017-04-06T09:31:35.021Z,8.70
2017-04-06T09:32:32.913Z,11.21
2017-04-06T09:33:30.835Z,10.93
2017-04-06T09:34:28.733Z,6.96
2017-04-06T09:35:26.592Z,11.64
2017-04-06T09:36:24.579Z,12.04
2017-04-06T09:37:22.465Z,12.99
2017-04-06T09:38:20.603Z,12.01
2017-04-06T09:39:18.459Z,8.31
2017-04-06T09:40:16.432Z,9.11
2017-04-06T09:41:14.303Z,13.36
2017-04-06T09:42:12.219Z,9.33
2017-04-06T09:43:10.123Z,6.51
2017-04-06T09:44:08.022Z,6.71
2017-04-06T09:45:05.864Z,12.93
2017-04-06T09:46:03.712Z,8.13
2017-04-06T09:47:01.654Z,5.63
2017-04-06T09:47:59.504Z,11.74
2017-04-06T09:48:57.391Z,5.03
2017-04-06T09:49:55.271Z,6.59
2017-04-06T09:50:53.140Z,9.19
2017-04-06T09:51:51.019Z,7.34
2017-04-06T09:52:48.872Z,12.03
2017-04-06T09:53:46.817Z,7.51
2017-04-06T09:54:44.692Z,8.09
2017-04-06T09:55:42.603Z,6.06
2017-04-06T09:56:40.508Z,10.56
2017-04-06T09:57:38.364Z,8.96
2017-04-06T09:58:36.272Z,7.41
2017-04-06T09:59:34.127Z,9.14
2017-04-06T10:00:32.214Z,6.51
2017-04-06T10:01:30.146Z,7.21
2017-04-06T10:02:28.007Z,6.80
2017-04-06T10:03:25.914Z,8.17
2017-04-06T10:04:23.819Z,6.19
2017-04-06T10:05:21.726Z,7.67
2017-04-06T10:06:19.647Z,5.94
2017-04-06T10:07:17.547Z,7.63
2017-04-06T10:08:15.404Z,5.37
2017-04-06T10:09:13.347Z,9.29
2017-04-06T10:10:11.190Z,9.04
2017-04-06T10:11:09.049Z,4.60
2017-04-06T10:12:06.929Z,5.33
2017-04-06T10:13:04.868Z,6.69
2017-04-06T10:14:02.670Z,6.59
2017-04-06T10:15:00.521Z,7.44
2017-04-06T10:15:58.377Z,10.07
2017-04-06T10:16:56.236Z,5.27
2017-04-06T10:17:54.069Z,4.79
2017-04-06T10:18:51.949Z,7.43
2017-04-06T10:19:49.851Z,9.90
2017-04-06T10:20:47.739Z,11.11
2017-04-06T10:21:45.607Z,7.34
2017-04-06T10:22:43.451Z,5.70
2017-04-06T10:23:41.308Z,7.14
2017-04-06T10:24:39.132Z,8.69
2017-04-06T10:25:37.032Z,8.00
2017-04-06T10:26:34.928Z,8.69
2017-04-06T10:27:32.781Z,9.66
2017-04-06T10:28:30.608Z,7.19
2017-04-06T10:29:28.648Z,10.91
2017-04-06T10:30:26.524Z,10.29
2017-04-06T10:31:24.417Z,8.37
2017-04-06T10:32:22.932Z,8.04
2017-04-06T10:33:20.844Z,10.54
2017-04-06T10:34:18.740Z,10.01
2017-04-06T10:35:16.644Z,10.56
2017-04-06T10:36:14.516Z,10.74
2017-04-06T10:37:12.399Z,9.33
2017-04-06T10:38:10.292Z,7.60
2017-04-06T10:39:08.162Z,11.51
2017-04-06T10:40:06.007Z,6.91
2017-04-06T10:41:03.891Z,14.27
2017-04-06T10:42:01.711Z,6.96
2017-04-06T10:42:59.600Z,8.17
2017-04-06T10:43:57.473Z,7.17
2017-04-06T10:44:55.283Z,6.79
2017-04-06T10:45:53.288Z,9.64
2017-04-06T10:46:51.140Z,7.94
2017-04-06T10:47:49.027Z,8.07
2017-04-06T10:48:46.889Z,7.37
2017-04-06T10:49:44.760Z,6.24
2017-04-06T10:50:42.679Z,9.47
2017-04-06T10:51:40.596Z,6.36
2017-04-06T10:52:38.501Z,5.94
2017-04-06T10:53:36.371Z,5.77
2017-04-06T10:54:34.242Z,11.71
2017-04-06T10:55:32.101Z,6.14
2017-04-06T10:56:29.984Z,9.49
2017-04-06T10:57:27.960Z,5.17
2017-04-06T10:58:26.134Z,11.04
2017-04-06T10:59:24.017Z,8.56
2017-04-06T11:00:21.945Z,4.41
2017-04-06T11:01:19.807Z,8.39
2017-04-06T11:02:17.690Z,10.53
2017-04-06T11:03:15.539Z,13.09
2017-04-06T11:04:13.420Z,11.17
2017-04-06T11:05:11.311Z,9.67
2017-04-06T11:06:10.660Z,7.86
2017-04-06T11:07:08.822Z,7.01
2017-04-06T11:08:07.600Z,7.77
2017-04-06T11:09:06.212Z,11.36
2017-04-06T11:10:04.072Z,8.53
2017-04-06T11:11:02.988Z,8.66
2017-04-06T11:12:00.911Z,10.53
2017-04-06T11:12:58.986Z,6.81
2017-04-06T11:13:56.815Z,6.63
2017-04-06T11:14:54.703Z,13.46
2017-04-06T11:15:52.712Z,6.69
2017-04-06T11:16:50.597Z,11.39
2017-04-06T11:17:48.564Z,10.73
2017-04-06T11:18:46.461Z,8.60
2017-04-06T11:19:44.359Z,7.00
2017-04-06T11:20:42.272Z,8.30
2017-04-06T11:21:40.240Z,7.94
2017-04-06T11:22:38.221Z,9.59
2017-04-06T11:23:36.062Z,7.59
2017-04-06T11:24:33.902Z,6.01
2017-04-06T11:25:31.779Z,6.87
2017-04-06T11:26:29.719Z,6.33
2017-04-06T11:27:27.565Z,6.37
2017-04-06T11:28:25.508Z,10.09
2017-04-06T11:29:23.368Z,8.29
2017-04-06T11:30:21.172Z,7.23
2017-04-06T11:31:19.002Z,8.89
2017-04-06T11:32:16.897Z,11.33
2017-04-06T11:33:14.783Z,9.64
2017-04-06T11:34:12.654Z,6.19
2017-04-06T11:35:10.627Z,9.33
2017-04-06T11:36:08.527Z,8.73
2017-04-06T11:37:06.405Z,11.79
2017-04-06T11:38:04.373Z,9.87
2017-04-06T11:39:02.291Z,4.63
2017-04-06T11:40:00.131Z,5.67
2017-04-06T11:40:57.985Z,6.54
2017-04-06T11:41:55.867Z,4.23
2017-04-06T11:42:53.765Z,5.89
2017-04-06T11:43:51.663Z,5.66
2017-04-06T11:44:49.515Z,5.29
2017-04-06T11:45:47.384Z,6.27
2017-04-06T11:46:45.292Z,6.09
2017-04-06T11:47:43.140Z,4.20
2017-04-06T11:48:40.992Z,4.31
2017-04-06T11:49:38.876Z,7.47
2017-04-06T11:50:36.744Z,7.01
2017-04-06T11:51:34.685Z,6.04
2017-04-06T11:52:32.560Z,5.19
2017-04-06T11:53:30.383Z,4.90
2017-04-06T11:54:28.335Z,5.14
2017-04-06T11:55:26.265Z,5.10
2017-04-06T11:56:24.150Z,4.36
2017-04-06T11:57:21.974Z,3.56
2017-04-06T11:58:19.885Z,4.03
2017-04-06T11:59:17.739Z,5.81
2017-04-06T12:00:15.729Z,6.57
2017-04-06T12:01:13.716Z,5.07
2017-04-06T12:02:11.543Z,4.80
2017-04-06T12:03:09.400Z,3.51
2017-04-06T12:04:07.303Z,8.11
2017-04-06T12:05:05.102Z,4.89
2017-04-06T12:06:03.041Z,7.24
2017-04-06T12:07:00.941Z,6.86
2017-04-06T12:07:58.828Z,5.23
2017-04-06T12:08:56.670Z,3.79
2017-04-06T12:09:54.567Z,4.71
2017-04-06T12:10:52.421Z,4.19
2017-04-06T12:11:50.299Z,11.57
2017-04-06T12:12:48.155Z,5.60
2017-04-06T12:13:45.975Z,3.27
2017-04-06T12:14:43.823Z,6.60
2017-04-06T12:15:41.663Z,4.30
2017-04-06T12:16:39.533Z,6.03
2017-04-06T12:17:37.374Z,2.96
2017-04-06T12:18:35.266Z,4.70
2017-04-06T12:19:33.129Z,4.06
2017-04-06T12:20:31.044Z,5.73
2017-04-06T12:21:28.917Z,4.54
2017-04-06T12:22:26.818Z,7.99
2017-04-06T12:23:24.698Z,3.89
2017-04-06T12:24:22.667Z,6.00
2017-04-06T12:25:20.510Z,7.71
2017-04-06T12:26:18.427Z,8.66
2017-04-06T12:27:16.380Z,6.69
2017-04-06T12:28:14.280Z,4.40
2017-04-06T12:29:12.218Z,4.80
2017-04-06T12:30:10.068Z,9.96
2017-04-06T12:31:07.919Z,8.69
2017-04-06T12:32:05.776Z,5.57
2017-04-06T12:33:03.679Z,4.64
2017-04-06T12:34:01.535Z,4.63
2017-04-06T12:34:59.455Z,4.66
2017-04-06T12:35:57.316Z,5.56
2017-04-06T12:36:55.176Z,6.43